Latest Coastal Weather Observations for Maria Island

IDT60701

Issued at 8:27 pm EDT Friday 30 January 2015 (issued every 10 minutes, with the page automatically refreshed every 10 minutes)

About coastal observations | Map of coastal stations | Coastal observations for TAS | Marine services | Other Formats
Station Details ID: 092124 Name: MARIA ISLAND (POINT LESUEUR) Lat: -42.66 Lon: 148.02 Height: 28.0 m
Data from the previous 72 hours. | See also: Recent months at Maria Island
Date/Time
EDT
Temp

°C
Wind Pressure Rain
since 9am
mm
Weather Cloud Vis
km
Sea
Height
m
Swell
Dir
 
Speed
knots
Gust
knots
hPa Trend Height
m
Period
s
Dir
30/08:00pm 13.6 SSW 25 30 1013.1 - 0.0 - - - - - - -
30/07:30pm 13.9 SSW 26 31 1013.1 - 0.0 - - - - - - -
30/07:00pm 13.7 SSW 24 29 1013.2 - 0.0 - - - - - - -
30/06:30pm 13.2 SSW 23 29 1013.3 - 0.0 - - - - - - -
30/06:00pm 13.8 SSW 21 26 1013.6 - 0.0 - - - - - - -
30/05:30pm 13.9 S 24 29 1013.8 - 0.0 - - - - - - -
30/05:00pm 14.1 S 25 31 1014.2 - 0.0 - - - - - - -
30/04:30pm 14.0 S 25 31 1014.5 - 0.0 - - - - - - -
30/04:00pm 14.8 S 25 30 1014.6 - 0.0 - - - - - - -
30/03:30pm 14.9 S 24 30 1014.8 - 0.0 - - - - - - -
30/03:00pm 14.7 S 24 31 1015.2 - 0.0 - - - - - - -
30/02:30pm 14.0 S 24 30 1015.4 - 0.0 - - - - - - -
30/02:00pm 14.1 S 24 32 1015.6 - 0.0 - - - - - - -
30/01:30pm 14.7 S 23 28 1015.7 - 0.0 - - - - - - -
30/01:00pm 14.4 S 22 29 1015.8 - 0.0 - - - - - - -
30/12:30pm 14.6 S 22 28 1016.3 - 0.0 - - - - - - -
30/12:00pm 14.9 S 22 29 1016.5 - 0.0 - - - - - - -
30/11:30am 13.1 S 23 29 1016.9 - 0.0 - - - - - - -
30/11:00am 13.9 S 24 30 1017.0 - 0.0 - - - - - - -
30/10:30am 13.1 SSE 22 28 1017.5 - 0.0 - - - - - - -
30/10:00am 13.6 S 22 27 1017.6 - 0.0 - - - - - - -
30/09:49am 13.3 S 22 33 1017.7 - 0.0 - - - - - - -
30/09:30am 13.8 S 23 31 1017.7 - 0.0 - - - - - - -
30/09:00am 12.9 S 23 28 1017.8 - 0.6 - - - - - - -
30/08:30am 13.3 SSE 17 27 1017.9 - 0.6 - - - - - - -
30/08:00am 13.4 SSE 21 32 1017.9 - 0.6 - - - - - - -
30/07:53am 13.0 SSE 19 32 1017.8 - 0.6 - - - - - - -
30/07:30am 12.6 SSE 18 25 1017.9 - 0.6 - - - - - - -
30/07:00am 13.1 SSE 21 29 1017.8 - 0.4 - - - - - - -
30/06:30am 13.2 S 20 27 1018.0 - 0.4 - - - - - - -
30/06:00am 13.2 SSE 21 26 1018.0 - 0.4 - - - - - - -
30/05:30am 13.1 SSE 21 30 1018.1 - 0.4 - - - - - - -
30/05:00am 13.5 SSE 21 29 1018.1 - 0.4 - - - - - - -
30/04:30am 13.4 SSE 19 28 1018.4 - 0.4 - - - - - - -
30/04:13am 13.1 SSE 18 28 1018.6 - 0.4 - - - - - - -
30/04:00am 13.0 SSE 18 24 1018.8 - 0.4 - - - - - - -
30/03:37am 13.4 SSE 19 29 1018.9 - 0.4 - - - - - - -
30/03:30am 13.3 SSE 18 25 1018.9 - 0.4 - - - - - - -
30/03:00am 13.2 SSE 19 26 1019.4 - 0.4 - - - - - - -
30/02:30am 13.2 S 20 25 1019.7 - 0.4 - - - - - - -
30/02:00am 13.3 S 19 27 1019.8 - 0.4 - - - - - - -
30/01:30am 13.3 S 22 29 1019.9 - 0.4 - - - - - - -
30/01:00am 13.3 S 20 26 1020.3 - 0.4 - - - - - - -
30/12:30am 12.3 SSE 24 30 1021.0 - 0.4 - - - - - - -
30/12:13am 13.0 S 18 30 1020.9 - 0.4 - - - - - - -
30/12:00am 12.4 SE 14 21 1021.4 - 0.4 - - - - - - -
 
Date/Time
EDT
Temp

°C
Wind Pressure Rain
since 9am
mm
Weather Cloud Vis
km
Sea
Height
m
Swell
Dir
 
Speed
knots
Gust
knots
hPa Trend Height
m
Period
s
Dir
29/11:30pm 13.4 SE 16 22 1021.5 - 0.4 - - - - - - -
29/11:00pm 13.3 SSE 17 25 1021.8 - 0.4 - - - - - - -
29/10:30pm 13.2 SSE 20 28 1022.0 - 0.4 - - - - - - -
29/10:00pm 13.3 SSE 19 24 1022.0 - 0.4 - - - - - - -
29/09:30pm 13.3 S 20 29 1021.8 - 0.4 - - - - - - -
29/09:18pm 13.2 SSE 19 30 1022.1 - 0.4 - - - - - - -
29/09:00pm 13.3 S 21 27 1021.8 - 0.4 - - - - - - -
29/08:30pm 13.5 S 21 27 1022.1 - 0.4 - - - - - - -
29/08:00pm 13.5 S 21 26 1022.1 - 0.4 - - - - - - -
29/07:30pm 13.4 SSE 21 27 1022.1 - 0.4 - - - - - - -
29/07:00pm 13.9 S 21 27 1022.0 - 0.4 - - - - - - -
29/06:30pm 13.7 SSE 22 27 1021.8 - 0.4 - - - - - - -
29/06:00pm 13.9 S 21 29 1022.1 - 0.4 - - - - - - -
29/05:30pm 14.3 SSE 19 25 1022.4 - 0.4 - - - - - - -
29/05:00pm 13.5 S 20 25 1022.8 - 0.4 - - - - - - -
29/04:30pm 14.3 SSE 18 24 1022.8 - 0.4 - - - - - - -
29/04:00pm 14.3 SSE 19 25 1023.0 - 0.4 - - - - - - -
29/03:30pm 13.3 SSE 16 22 1023.2 - 0.4 - - - - - - -
29/03:00pm 13.1 S 22 27 1023.2 - 0.4 Rain - - - - - -
29/02:51pm 13.1 S 19 26 1023.1 - 0.4 - - - - - - -
29/02:30pm 14.1 SSE 20 26 1023.5 - 0.2 - - - - - - -
29/02:00pm 14.7 SSE 18 26 1023.6 - 0.2 - - - - - - -
29/01:30pm 13.9 SSE 16 21 1023.7 - 0.2 - - - - - - -
29/01:00pm 14.7 SSE 18 22 1023.8 - 0.2 - - - - - - -
29/12:30pm 14.4 SSE 18 22 1024.1 - 0.2 - - - - - - -
29/12:00pm 14.1 SSE 18 22 1024.2 - 0.2 - - - - - - -
29/11:30am 14.5 S 16 20 1024.4 - 0.2 - - - - - - -
29/11:00am 14.0 SSE 15 21 1024.3 - 0.2 - - - - - - -
29/10:30am 13.2 SSE 16 22 1024.6 - 0.2 - - - - - - -
29/10:00am 13.3 S 18 29 1024.4 - 0.0 - - - - - - -
29/09:58am 13.2 S 18 29 1024.4 - 0.0 - - - - - - -
29/09:30am 13.4 SSE 17 24 1024.5 - 0.0 - - - - - - -
29/09:00am 12.6 S 19 24 1024.4 - 0.8 Rain - - - - - -
29/08:30am 12.4 S 17 24 1024.4 - 0.4 - - - - - - -
29/08:00am 13.3 SSE 17 21 1024.1 - 0.4 - - - - - - -
29/07:30am 13.4 SSE 13 19 1024.0 - 0.4 - - - - - - -
29/07:00am 13.2 SSE 14 18 1023.8 - 0.4 - - - - - - -
29/06:30am 13.1 SSE 16 22 1023.6 - 0.4 - - - - - - -
29/06:00am 12.9 SSE 12 17 1023.6 - 0.4 - - - - - - -
29/05:30am 12.8 SE 15 22 1023.4 - 0.4 - - - - - - -
29/05:00am 12.9 SSE 14 20 1023.4 - 0.4 - - - - - - -
29/04:30am 13.3 SSE 17 22 1023.2 - 0.4 - - - - - - -
29/04:00am 13.3 SSE 19 25 1023.2 - 0.4 - - - - - - -
29/03:30am 12.7 SE 16 22 1023.6 - 0.4 - - - - - - -
29/03:00am 13.2 SSE 16 22 1023.5 - 0.4 Recent precip. - - - - - -
29/02:30am 12.4 SE 10 14 1023.8 - 0.4 - - - - - - -
29/02:00am 11.9 S 12 15 1024.0 - 0.2 - - - - - - -
29/01:30am 12.6 S 16 19 1024.1 - 0.0 - - - - - - -
29/01:00am 12.8 SSE 15 19 1024.3 - 0.0 - - - - - - -
29/12:30am 13.4 SSE 16 20 1024.3 - 0.0 - - - - - - -
29/12:00am 13.4 SSE 14 18 1024.4 - 0.0 - - - - - - -
 
Date/Time
EDT
Temp

°C
Wind Pressure Rain
since 9am
mm
Weather Cloud Vis
km
Sea
Height
m
Swell
Dir
 
Speed
knots
Gust
knots
hPa Trend Height
m
Period
s
Dir
28/11:30pm 13.0 SE 12 17 1024.7 - 0.0 - - - - - - -
28/11:00pm 12.6 SSE 14 17 1024.9 - 0.0 - - - - - - -
28/10:30pm 12.7 SSE 17 22 1025.1 - 0.0 - - - - - - -
28/10:00pm 13.3 SSE 15 21 1025.1 - 0.0 - - - - - - -
28/09:30pm 13.4 SSE 16 21 1025.0 - 0.0 - - - - - - -
28/09:00pm 13.5 SSE 17 23 1024.8 - 0.0 - - - - - - -
28/08:30pm 13.4 SSE 16 22 1024.5 - 0.0 - - - - - - -
28/08:00pm 13.5 SSE 15 20 1024.5 - 0.0 - - - - - - -
28/07:30pm 13.6 SSE 18 22 1024.2 - 0.0 - - - - - - -
28/07:00pm 13.4 SSE 15 22 1024.3 - 0.0 - - - - - - -
28/06:30pm 13.2 S 16 19 1024.2 - 0.0 - - - - - - -
28/06:00pm 13.5 S 16 19 1024.2 - 0.0 - - - - - - -
28/05:30pm 13.8 SSE 20 24 1024.1 - 0.0 - - - - - - -
28/05:00pm 13.8 S 15 22 1024.0 - 0.0 - - - - - - -
28/04:30pm 13.6 S 18 22 1024.1 - 0.0 - - - - - - -
28/04:00pm 14.2 SSE 20 25 1023.8 - 0.0 - - - - - - -
28/03:30pm 14.6 S 19 24 1024.0 - 0.0 - - - - - - -
28/03:00pm 14.7 S 18 24 1024.1 - 0.0 - - - - - - -
28/02:30pm 14.9 S 19 23 1024.0 - 0.0 - - - - - - -
28/02:00pm 14.4 S 19 24 1024.0 - 0.0 - - - - - - -
28/01:30pm 14.9 S 16 21 1024.1 - 0.0 - - - - - - -
28/01:00pm 14.8 S 17 21 1024.1 - 0.0 - - - - - - -
28/12:30pm 14.6 SSE 17 22 1024.1 - 0.0 - - - - - - -
28/12:00pm 14.0 S 18 23 1024.0 - 0.0 - - - - - - -
28/11:30am 14.7 S 19 23 1023.9 - 0.0 - - - - - - -
28/11:00am 14.1 S 18 21 1023.9 - 0.0 - - - - - - -
28/10:30am 13.9 S 17 21 1023.9 - 0.0 - - - - - - -
28/10:00am 13.3 SSW 14 18 1023.8 - 0.0 - - - - - - -
28/09:30am 12.4 SSW 13 18 1023.5 - 0.0 - - - - - - -
28/09:00am 12.4 SSW 14 18 1023.3 - 2.0 Recent precip. - - - - - -
28/08:30am 11.9 SSW 17 21 1022.9 - 1.6 - - - - - - -
28/08:00am 12.3 SSW 13 16 1022.5 - 1.6 - - - - - - -
28/07:30am 11.5 SW 14 16 1022.3 - 1.4 - - - - - - -
28/07:00am 11.3 SSW 20 23 1021.9 - 1.2 - - - - - - -
28/06:30am 11.8 SSW 17 19 1021.7 - 0.4 - - - - - - -
28/06:00am 11.9 SW 19 23 1021.1 - 0.0 - - - - - - -
28/05:30am 12.2 SSW 17 20 1021.0 - 0.0 - - - - - - -
28/05:00am 12.6 SSW 19 23 1020.8 - 0.0 - - - - - - -
28/04:30am 12.8 SSW 18 21 1020.6 - 0.0 - - - - - - -
28/04:00am 12.9 SSW 18 21 1020.6 - 0.0 - - - - - - -
28/03:30am 13.0 SW 17 20 1020.7 - 0.0 - - - - - - -
28/03:00am 13.3 SSW 19 23 1021.0 - 0.0 - - - - - - -
28/02:30am 13.3 S 17 21 1021.0 - 0.0 - - - - - - -
28/02:00am 13.4 SSW 18 21 1021.1 - 0.0 - - - - - - -
28/01:30am 13.5 SSW 19 22 1021.1 - 0.0 - - - - - - -
28/01:00am 13.5 SSW 19 22 1021.1 - 0.0 - - - - - - -
28/12:30am 13.5 SSW 15 18 1021.2 - 0.0 - - - - - - -
28/12:00am 13.5 SSW 14 18 1021.3 - 0.0 - - - - - - -
 
Date/Time
EDT
Temp

°C
Wind Pressure Rain
since 9am
mm
Weather Cloud Vis
km
Sea
Height
m
Swell
Dir
 
Speed
knots
Gust
knots
hPa Trend Height
m
Period
s
Dir
27/11:30pm 13.4 SSW 19 21 1021.0 - 0.0 - - - - - - -
27/11:00pm 13.5 SSW 20 24 1020.9 - 0.0 - - - - - - -
27/10:30pm 14.0 S 18 20 1020.6 - 0.0 - - - - - - -
27/10:00pm 14.0 SSW 17 20 1020.5 - 0.0 - - - - - - -
27/09:30pm 14.2 SSW 15 19 1020.3 - 0.0 - - - - - - -
27/09:00pm 13.9 SSW 17 21 1020.1 - 0.0 - - - - - - -
27/08:30pm 14.6 SSW 17 20 1019.6 - 0.0 - - - - - - -

Other Formats:

Comma delimited format used in spreadsheet applications
http://www.bom.gov.au/fwo/IDT60701/IDT60701.95988.axf

JavaScript Object Notation format (JSON) in row-major order
http://www.bom.gov.au/fwo/IDT60701/IDT60701.95988.json